sensor_id;sensor_type;location;lat;lon;timestamp;P1;durP1;ratioP1;P2;durP2;ratioP2
12129;SDS011;6128;59.340;18.040;2023-08-21T00:01:40;18.30;;;15.23;;
12129;SDS011;6128;59.340;18.040;2023-08-21T00:04:07;17.50;;;15.70;;
12129;SDS011;6128;59.340;18.040;2023-08-21T00:06:36;12.37;;;11.17;;
12129;SDS011;6128;59.340;18.040;2023-08-21T00:09:03;12.77;;;11.37;;
12129;SDS011;6128;59.340;18.040;2023-08-21T00:11:30;12.57;;;11.37;;
12129;SDS011;6128;59.340;18.040;2023-08-21T00:13:57;10.53;;;9.63;;
12129;SDS011;6128;59.340;18.040;2023-08-21T00:16:24;10.67;;;9.67;;
12129;SDS011;6128;59.340;18.040;2023-08-21T00:18:53;10.77;;;9.77;;
12129;SDS011;6128;59.340;18.040;2023-08-21T00:21:20;10.20;;;9.30;;
12129;SDS011;6128;59.340;18.040;2023-08-21T00:23:49;10.37;;;9.47;;
12129;SDS011;6128;59.340;18.040;2023-08-21T00:26:16;10.07;;;9.17;;
12129;SDS011;6128;59.340;18.040;2023-08-21T00:28:43;10.30;;;9.40;;
12129;SDS011;6128;59.340;18.040;2023-08-21T00:31:10;11.63;;;10.53;;
12129;SDS011;6128;59.340;18.040;2023-08-21T00:33:37;12.97;;;11.47;;
12129;SDS011;6128;59.340;18.040;2023-08-21T00:36:04;13.13;;;11.80;;
12129;SDS011;6128;59.340;18.040;2023-08-21T00:38:31;12.47;;;11.27;;
12129;SDS011;6128;59.340;18.040;2023-08-21T00:41:00;14.97;;;11.70;;
12129;SDS011;6128;59.340;18.040;2023-08-21T00:43:27;13.60;;;12.30;;
12129;SDS011;6128;59.340;18.040;2023-08-21T00:45:54;13.93;;;12.57;;
12129;SDS011;6128;59.340;18.040;2023-08-21T00:48:21;14.90;;;13.40;;
12129;SDS011;6128;59.340;18.040;2023-08-21T00:50:48;14.33;;;12.93;;
12129;SDS011;6128;59.340;18.040;2023-08-21T00:53:16;14.47;;;13.07;;
12129;SDS011;6128;59.340;18.040;2023-08-21T00:55:44;14.17;;;12.70;;
12129;SDS011;6128;59.340;18.040;2023-08-21T00:58:13;14.47;;;13.07;;
12129;SDS011;6128;59.340;18.040;2023-08-21T01:00:41;14.43;;;13.03;;
12129;SDS011;6128;59.340;18.040;2023-08-21T01:03:10;14.27;;;12.93;;
12129;SDS011;6128;59.340;18.040;2023-08-21T01:05:37;13.73;;;12.40;;
12129;SDS011;6128;59.340;18.040;2023-08-21T01:08:05;14.03;;;12.73;;
12129;SDS011;6128;59.340;18.040;2023-08-21T01:10:39;13.57;;;12.30;;
12129;SDS011;6128;59.340;18.040;2023-08-21T01:13:18;13.90;;;12.50;;
12129;SDS011;6128;59.340;18.040;2023-08-21T01:15:50;13.37;;;12.17;;
12129;SDS011;6128;59.340;18.040;2023-08-21T01:18:19;13.17;;;12.00;;
12129;SDS011;6128;59.340;18.040;2023-08-21T01:20:47;12.90;;;11.60;;
12129;SDS011;6128;59.340;18.040;2023-08-21T01:23:27;12.80;;;11.67;;
12129;SDS011;6128;59.340;18.040;2023-08-21T01:25:58;13.77;;;12.37;;
12129;SDS011;6128;59.340;18.040;2023-08-21T01:28:25;12.37;;;11.27;;
12129;SDS011;6128;59.340;18.040;2023-08-21T01:30:54;12.27;;;11.03;;
12129;SDS011;6128;59.340;18.040;2023-08-21T01:33:27;11.87;;;10.90;;
12129;SDS011;6128;59.340;18.040;2023-08-21T01:35:59;12.80;;;11.70;;
12129;SDS011;6128;59.340;18.040;2023-08-21T01:38:32;11.97;;;10.90;;
12129;SDS011;6128;59.340;18.040;2023-08-21T01:41:00;12.17;;;11.07;;
12129;SDS011;6128;59.340;18.040;2023-08-21T01:43:28;12.73;;;11.53;;
12129;SDS011;6128;59.340;18.040;2023-08-21T01:45:55;12.90;;;11.70;;
12129;SDS011;6128;59.340;18.040;2023-08-21T01:48:22;12.90;;;11.50;;
12129;SDS011;6128;59.340;18.040;2023-08-21T01:50:49;12.90;;;11.80;;
12129;SDS011;6128;59.340;18.040;2023-08-21T01:53:16;12.63;;;11.53;;
12129;SDS011;6128;59.340;18.040;2023-08-21T01:55:45;13.13;;;11.83;;
12129;SDS011;6128;59.340;18.040;2023-08-21T01:58:12;13.70;;;12.40;;
12129;SDS011;6128;59.340;18.040;2023-08-21T02:00:39;12.13;;;11.13;;
12129;SDS011;6128;59.340;18.040;2023-08-21T02:03:06;13.40;;;12.23;;
12129;SDS011;6128;59.340;18.040;2023-08-21T02:05:37;12.27;;;11.27;;
12129;SDS011;6128;59.340;18.040;2023-08-21T02:08:05;12.70;;;11.60;;
12129;SDS011;6128;59.340;18.040;2023-08-21T02:10:33;11.80;;;10.60;;
12129;SDS011;6128;59.340;18.040;2023-08-21T02:13:01;12.33;;;11.13;;
12129;SDS011;6128;59.340;18.040;2023-08-21T02:15:29;11.70;;;10.70;;
12129;SDS011;6128;59.340;18.040;2023-08-21T02:17:57;11.77;;;10.70;;
12129;SDS011;6128;59.340;18.040;2023-08-21T02:20:25;12.03;;;10.83;;
12129;SDS011;6128;59.340;18.040;2023-08-21T02:22:51;12.10;;;10.30;;
12129;SDS011;6128;59.340;18.040;2023-08-21T02:25:19;11.40;;;10.23;;
12129;SDS011;6128;59.340;18.040;2023-08-21T02:27:46;11.77;;;10.67;;
12129;SDS011;6128;59.340;18.040;2023-08-21T02:30:14;11.63;;;10.53;;
12129;SDS011;6128;59.340;18.040;2023-08-21T02:32:41;11.47;;;10.43;;
12129;SDS011;6128;59.340;18.040;2023-08-21T02:35:08;11.17;;;10.17;;
12129;SDS011;6128;59.340;18.040;2023-08-21T02:37:35;11.40;;;10.40;;
12129;SDS011;6128;59.340;18.040;2023-08-21T02:40:05;10.97;;;9.97;;
12129;SDS011;6128;59.340;18.040;2023-08-21T02:42:34;10.70;;;9.80;;
12129;SDS011;6128;59.340;18.040;2023-08-21T02:45:01;10.90;;;9.90;;
12129;SDS011;6128;59.340;18.040;2023-08-21T02:47:35;11.93;;;10.93;;
12129;SDS011;6128;59.340;18.040;2023-08-21T02:50:03;11.70;;;10.70;;
12129;SDS011;6128;59.340;18.040;2023-08-21T02:52:30;11.13;;;10.13;;
12129;SDS011;6128;59.340;18.040;2023-08-21T02:54:57;11.10;;;10.13;;
12129;SDS011;6128;59.340;18.040;2023-08-21T02:57:25;11.97;;;10.77;;
12129;SDS011;6128;59.340;18.040;2023-08-21T02:59:52;11.27;;;10.27;;
12129;SDS011;6128;59.340;18.040;2023-08-21T03:02:20;10.63;;;9.73;;
12129;SDS011;6128;59.340;18.040;2023-08-21T03:04:48;10.57;;;9.57;;
12129;SDS011;6128;59.340;18.040;2023-08-21T03:07:16;10.90;;;9.83;;
12129;SDS011;6128;59.340;18.040;2023-08-21T03:09:44;10.77;;;9.73;;
12129;SDS011;6128;59.340;18.040;2023-08-21T03:12:12;10.07;;;9.17;;
12129;SDS011;6128;59.340;18.040;2023-08-21T03:14:39;10.60;;;9.70;;
12129;SDS011;6128;59.340;18.040;2023-08-21T03:17:06;10.77;;;9.87;;
12129;SDS011;6128;59.340;18.040;2023-08-21T03:19:33;10.40;;;9.47;;
12129;SDS011;6128;59.340;18.040;2023-08-21T03:22:02;10.07;;;9.23;;
12129;SDS011;6128;59.340;18.040;2023-08-21T03:24:30;10.50;;;9.60;;
12129;SDS011;6128;59.340;18.040;2023-08-21T03:26:57;9.93;;;9.07;;
12129;SDS011;6128;59.340;18.040;2023-08-21T03:29:24;9.77;;;8.97;;
12129;SDS011;6128;59.340;18.040;2023-08-21T03:31:52;10.33;;;9.40;;
12129;SDS011;6128;59.340;18.040;2023-08-21T03:34:19;9.67;;;8.83;;
12129;SDS011;6128;59.340;18.040;2023-08-21T03:36:46;10.03;;;9.03;;
12129;SDS011;6128;59.340;18.040;2023-08-21T03:39:15;8.90;;;8.10;;
12129;SDS011;6128;59.340;18.040;2023-08-21T03:41:42;9.10;;;8.27;;
12129;SDS011;6128;59.340;18.040;2023-08-21T03:44:09;8.77;;;7.97;;
12129;SDS011;6128;59.340;18.040;2023-08-21T03:46:36;8.57;;;7.80;;
12129;SDS011;6128;59.340;18.040;2023-08-21T03:49:03;8.97;;;8.20;;
12129;SDS011;6128;59.340;18.040;2023-08-21T03:51:31;8.00;;;7.37;;
12129;SDS011;6128;59.340;18.040;2023-08-21T03:53:58;8.10;;;7.30;;
12129;SDS011;6128;59.340;18.040;2023-08-21T03:56:27;7.63;;;7.03;;
12129;SDS011;6128;59.340;18.040;2023-08-21T03:58:54;7.00;;;6.47;;
12129;SDS011;6128;59.340;18.040;2023-08-21T04:01:21;7.33;;;6.73;;
12129;SDS011;6128;59.340;18.040;2023-08-21T04:03:48;7.07;;;6.50;;
12129;SDS011;6128;59.340;18.040;2023-08-21T04:06:15;6.53;;;5.77;;
12129;SDS011;6128;59.340;18.040;2023-08-21T04:08:42;5.60;;;5.10;;
12129;SDS011;6128;59.340;18.040;2023-08-21T04:11:09;5.57;;;5.07;;
12129;SDS011;6128;59.340;18.040;2023-08-21T04:13:38;5.17;;;4.77;;
12129;SDS011;6128;59.340;18.040;2023-08-21T04:16:05;5.27;;;4.87;;
12129;SDS011;6128;59.340;18.040;2023-08-21T04:18:33;4.63;;;4.23;;
12129;SDS011;6128;59.340;18.040;2023-08-21T04:21:02;4.93;;;4.53;;
12129;SDS011;6128;59.340;18.040;2023-08-21T04:23:29;4.27;;;3.97;;
12129;SDS011;6128;59.340;18.040;2023-08-21T04:25:59;4.70;;;4.30;;
12129;SDS011;6128;59.340;18.040;2023-08-21T04:28:27;4.47;;;4.17;;
12129;SDS011;6128;59.340;18.040;2023-08-21T04:30:57;4.50;;;4.20;;
12129;SDS011;6128;59.340;18.040;2023-08-21T04:33:24;4.10;;;3.80;;
12129;SDS011;6128;59.340;18.040;2023-08-21T04:35:51;4.70;;;4.13;;
12129;SDS011;6128;59.340;18.040;2023-08-21T04:38:18;4.83;;;4.10;;
12129;SDS011;6128;59.340;18.040;2023-08-21T04:40:45;4.57;;;4.17;;
12129;SDS011;6128;59.340;18.040;2023-08-21T04:43:12;4.83;;;4.47;;
12129;SDS011;6128;59.340;18.040;2023-08-21T04:45:45;4.47;;;4.07;;
12129;SDS011;6128;59.340;18.040;2023-08-21T04:48:15;4.03;;;3.50;;
12129;SDS011;6128;59.340;18.040;2023-08-21T04:50:42;4.10;;;3.80;;
12129;SDS011;6128;59.340;18.040;2023-08-21T04:53:09;4.20;;;3.63;;
12129;SDS011;6128;59.340;18.040;2023-08-21T04:55:36;4.13;;;3.83;;
12129;SDS011;6128;59.340;18.040;2023-08-21T04:58:05;3.90;;;3.53;;
12129;SDS011;6128;59.340;18.040;2023-08-21T05:00:33;4.20;;;3.77;;
12129;SDS011;6128;59.340;18.040;2023-08-21T05:03:00;4.83;;;4.43;;
12129;SDS011;6128;59.340;18.040;2023-08-21T05:05:28;6.63;;;4.23;;
12129;SDS011;6128;59.340;18.040;2023-08-21T05:07:55;4.90;;;4.40;;
12129;SDS011;6128;59.340;18.040;2023-08-21T05:10:22;6.67;;;4.10;;
12129;SDS011;6128;59.340;18.040;2023-08-21T05:12:50;4.37;;;4.07;;
12129;SDS011;6128;59.340;18.040;2023-08-21T05:15:17;4.40;;;4.00;;
12129;SDS011;6128;59.340;18.040;2023-08-21T05:17:44;4.07;;;3.77;;
12129;SDS011;6128;59.340;18.040;2023-08-21T05:20:11;5.87;;;4.23;;
12129;SDS011;6128;59.340;18.040;2023-08-21T05:22:41;4.50;;;4.07;;
12129;SDS011;6128;59.340;18.040;2023-08-21T05:25:09;3.90;;;3.60;;
12129;SDS011;6128;59.340;18.040;2023-08-21T05:27:37;3.80;;;3.33;;
12129;SDS011;6128;59.340;18.040;2023-08-21T05:30:04;4.17;;;3.77;;
12129;SDS011;6128;59.340;18.040;2023-08-21T05:32:32;4.33;;;3.93;;
12129;SDS011;6128;59.340;18.040;2023-08-21T05:34:59;4.50;;;4.10;;
12129;SDS011;6128;59.340;18.040;2023-08-21T05:37:26;3.93;;;3.63;;
12129;SDS011;6128;59.340;18.040;2023-08-21T05:39:55;3.90;;;3.60;;
12129;SDS011;6128;59.340;18.040;2023-08-21T05:42:22;4.30;;;3.77;;
12129;SDS011;6128;59.340;18.040;2023-08-21T05:44:49;4.53;;;3.63;;
12129;SDS011;6128;59.340;18.040;2023-08-21T05:47:16;6.60;;;3.37;;
12129;SDS011;6128;59.340;18.040;2023-08-21T05:49:43;3.37;;;3.07;;
12129;SDS011;6128;59.340;18.040;2023-08-21T05:52:12;4.00;;;3.70;;
12129;SDS011;6128;59.340;18.040;2023-08-21T05:54:39;4.93;;;3.57;;
12129;SDS011;6128;59.340;18.040;2023-08-21T05:57:08;4.70;;;3.17;;
12129;SDS011;6128;59.340;18.040;2023-08-21T05:59:35;3.50;;;3.20;;
12129;SDS011;6128;59.340;18.040;2023-08-21T06:02:09;4.87;;;3.03;;
12129;SDS011;6128;59.340;18.040;2023-08-21T06:04:36;3.07;;;2.80;;
12129;SDS011;6128;59.340;18.040;2023-08-21T06:07:04;3.70;;;2.67;;
12129;SDS011;6128;59.340;18.040;2023-08-21T06:09:31;3.43;;;2.97;;
12129;SDS011;6128;59.340;18.040;2023-08-21T06:11:59;4.23;;;2.80;;
12129;SDS011;6128;59.340;18.040;2023-08-21T06:14:28;2.90;;;2.60;;
12129;SDS011;6128;59.340;18.040;2023-08-21T06:16:56;3.27;;;2.63;;
12129;SDS011;6128;59.340;18.040;2023-08-21T06:19:23;6.37;;;2.63;;
12129;SDS011;6128;59.340;18.040;2023-08-21T06:21:50;3.50;;;2.17;;
12129;SDS011;6128;59.340;18.040;2023-08-21T06:24:17;3.80;;;2.20;;
12129;SDS011;6128;59.340;18.040;2023-08-21T06:26:45;5.47;;;2.15;;
12129;SDS011;6128;59.340;18.040;2023-08-21T06:29:12;3.72;;;2.00;;
12129;SDS011;6128;59.340;18.040;2023-08-21T06:31:40;3.88;;;1.90;;
12129;SDS011;6128;59.340;18.040;2023-08-21T06:34:08;3.00;;;2.03;;
12129;SDS011;6128;59.340;18.040;2023-08-21T06:36:35;4.25;;;2.15;;
12129;SDS011;6128;59.340;18.040;2023-08-21T06:39:02;5.97;;;2.20;;
12129;SDS011;6128;59.340;18.040;2023-08-21T06:41:29;6.32;;;2.47;;
12129;SDS011;6128;59.340;18.040;2023-08-21T06:43:57;3.50;;;1.83;;
12129;SDS011;6128;59.340;18.040;2023-08-21T06:46:24;3.03;;;2.38;;
12129;SDS011;6128;59.340;18.040;2023-08-21T06:48:53;3.83;;;2.08;;
12129;SDS011;6128;59.340;18.040;2023-08-21T06:51:20;5.28;;;2.08;;
12129;SDS011;6128;59.340;18.040;2023-08-21T06:53:47;3.25;;;2.08;;
12129;SDS011;6128;59.340;18.040;2023-08-21T06:56:15;2.83;;;1.83;;
12129;SDS011;6128;59.340;18.040;2023-08-21T06:58:42;3.08;;;2.13;;
12129;SDS011;6128;59.340;18.040;2023-08-21T07:01:09;3.15;;;1.75;;
12129;SDS011;6128;59.340;18.040;2023-08-21T07:03:36;3.92;;;2.20;;
12129;SDS011;6128;59.340;18.040;2023-08-21T07:06:05;6.55;;;2.38;;
12129;SDS011;6128;59.340;18.040;2023-08-21T07:08:32;3.00;;;2.50;;
12129;SDS011;6128;59.340;18.040;2023-08-21T07:11:01;3.75;;;2.28;;
12129;SDS011;6128;59.340;18.040;2023-08-21T07:13:28;4.13;;;2.58;;
12129;SDS011;6128;59.340;18.040;2023-08-21T07:15:56;4.32;;;2.33;;
12129;SDS011;6128;59.340;18.040;2023-08-21T07:18:26;6.18;;;2.40;;
12129;SDS011;6128;59.340;18.040;2023-08-21T07:20:57;4.22;;;2.17;;
12129;SDS011;6128;59.340;18.040;2023-08-21T07:23:31;4.97;;;2.30;;
12129;SDS011;6128;59.340;18.040;2023-08-21T07:25:59;3.85;;;2.22;;
12129;SDS011;6128;59.340;18.040;2023-08-21T07:28:28;2.05;;;1.60;;
12129;SDS011;6128;59.340;18.040;2023-08-21T07:30:55;4.78;;;2.13;;
12129;SDS011;6128;59.340;18.040;2023-08-21T07:33:23;7.43;;;2.05;;
12129;SDS011;6128;59.340;18.040;2023-08-21T07:35:56;3.00;;;2.08;;
12129;SDS011;6128;59.340;18.040;2023-08-21T07:38:24;2.33;;;1.60;;
12129;SDS011;6128;59.340;18.040;2023-08-21T07:41:01;3.22;;;1.95;;
12129;SDS011;6128;59.340;18.040;2023-08-21T07:43:29;4.53;;;2.30;;
12129;SDS011;6128;59.340;18.040;2023-08-21T07:45:56;5.25;;;2.25;;
12129;SDS011;6128;59.340;18.040;2023-08-21T07:48:23;2.80;;;1.70;;
12129;SDS011;6128;59.340;18.040;2023-08-21T07:50:51;2.13;;;1.48;;
12129;SDS011;6128;59.340;18.040;2023-08-21T07:53:19;3.45;;;2.42;;
12129;SDS011;6128;59.340;18.040;2023-08-21T07:55:46;4.93;;;1.90;;
12129;SDS011;6128;59.340;18.040;2023-08-21T07:58:14;3.95;;;1.85;;
12129;SDS011;6128;59.340;18.040;2023-08-21T08:00:42;4.82;;;2.10;;
12129;SDS011;6128;59.340;18.040;2023-08-21T08:03:09;4.22;;;2.00;;
12129;SDS011;6128;59.340;18.040;2023-08-21T08:05:37;3.15;;;2.00;;
12129;SDS011;6128;59.340;18.040;2023-08-21T08:08:04;6.28;;;2.22;;
12129;SDS011;6128;59.340;18.040;2023-08-21T08:10:31;3.80;;;2.10;;
12129;SDS011;6128;59.340;18.040;2023-08-21T08:12:59;4.10;;;2.17;;
12129;SDS011;6128;59.340;18.040;2023-08-21T08:15:27;3.75;;;1.90;;
12129;SDS011;6128;59.340;18.040;2023-08-21T08:17:54;4.32;;;2.35;;
12129;SDS011;6128;59.340;18.040;2023-08-21T08:20:21;3.42;;;1.95;;
12129;SDS011;6128;59.340;18.040;2023-08-21T08:22:49;2.75;;;2.13;;
12129;SDS011;6128;59.340;18.040;2023-08-21T08:25:19;4.07;;;1.98;;
12129;SDS011;6128;59.340;18.040;2023-08-21T08:27:46;4.55;;;2.28;;
12129;SDS011;6128;59.340;18.040;2023-08-21T08:30:14;5.10;;;1.92;;
12129;SDS011;6128;59.340;18.040;2023-08-21T08:32:43;3.55;;;2.13;;
12129;SDS011;6128;59.340;18.040;2023-08-21T08:35:10;5.10;;;2.10;;
12129;SDS011;6128;59.340;18.040;2023-08-21T08:37:38;3.00;;;2.55;;
12129;SDS011;6128;59.340;18.040;2023-08-21T08:40:06;2.72;;;1.90;;
12129;SDS011;6128;59.340;18.040;2023-08-21T08:42:34;3.28;;;2.20;;
12129;SDS011;6128;59.340;18.040;2023-08-21T08:45:08;2.40;;;1.85;;
12129;SDS011;6128;59.340;18.040;2023-08-21T08:47:36;3.47;;;1.92;;
12129;SDS011;6128;59.340;18.040;2023-08-21T08:50:06;3.03;;;1.70;;
12129;SDS011;6128;59.340;18.040;2023-08-21T08:52:35;4.38;;;1.80;;
12129;SDS011;6128;59.340;18.040;2023-08-21T08:55:05;3.33;;;1.85;;
12129;SDS011;6128;59.340;18.040;2023-08-21T08:57:33;2.25;;;1.80;;
12129;SDS011;6128;59.340;18.040;2023-08-21T09:00:01;2.65;;;1.50;;
12129;SDS011;6128;59.340;18.040;2023-08-21T09:02:29;3.08;;;1.80;;
12129;SDS011;6128;59.340;18.040;2023-08-21T09:04:56;3.35;;;1.98;;
12129;SDS011;6128;59.340;18.040;2023-08-21T09:07:28;4.15;;;1.60;;
12129;SDS011;6128;59.340;18.040;2023-08-21T09:09:55;5.68;;;2.05;;
12129;SDS011;6128;59.340;18.040;2023-08-21T09:12:22;3.25;;;1.77;;
12129;SDS011;6128;59.340;18.040;2023-08-21T09:14:49;2.65;;;1.80;;
12129;SDS011;6128;59.340;18.040;2023-08-21T09:17:16;5.20;;;1.70;;
12129;SDS011;6128;59.340;18.040;2023-08-21T09:19:44;3.50;;;1.52;;
12129;SDS011;6128;59.340;18.040;2023-08-21T09:22:11;4.10;;;1.70;;
12129;SDS011;6128;59.340;18.040;2023-08-21T09:27:31;3.20;;;1.50;;
12129;SDS011;6128;59.340;18.040;2023-08-21T09:29:59;4.10;;;2.45;;
12129;SDS011;6128;59.340;18.040;2023-08-21T09:32:27;3.08;;;1.73;;
12129;SDS011;6128;59.340;18.040;2023-08-21T09:34:54;2.67;;;1.48;;
12129;SDS011;6128;59.340;18.040;2023-08-21T09:37:23;4.15;;;1.40;;
12129;SDS011;6128;59.340;18.040;2023-08-21T09:39:58;6.50;;;2.20;;
12129;SDS011;6128;59.340;18.040;2023-08-21T09:42:32;3.55;;;1.95;;
12129;SDS011;6128;59.340;18.040;2023-08-21T09:45:00;3.15;;;1.67;;
12129;SDS011;6128;59.340;18.040;2023-08-21T09:47:29;4.20;;;1.55;;
12129;SDS011;6128;59.340;18.040;2023-08-21T09:49:58;4.78;;;1.75;;
12129;SDS011;6128;59.340;18.040;2023-08-21T09:52:26;5.55;;;2.00;;
12129;SDS011;6128;59.340;18.040;2023-08-21T09:54:53;3.90;;;1.60;;
12129;SDS011;6128;59.340;18.040;2023-08-21T09:57:23;3.63;;;1.63;;
12129;SDS011;6128;59.340;18.040;2023-08-21T09:59:51;3.97;;;1.85;;
12129;SDS011;6128;59.340;18.040;2023-08-21T10:02:20;3.80;;;1.60;;
12129;SDS011;6128;59.340;18.040;2023-08-21T10:04:49;4.03;;;1.48;;
12129;SDS011;6128;59.340;18.040;2023-08-21T10:07:18;3.45;;;1.52;;
12129;SDS011;6128;59.340;18.040;2023-08-21T10:09:49;4.32;;;1.77;;
12129;SDS011;6128;59.340;18.040;2023-08-21T10:12:17;3.67;;;1.60;;
12129;SDS011;6128;59.340;18.040;2023-08-21T10:14:48;3.42;;;1.58;;
12129;SDS011;6128;59.340;18.040;2023-08-21T10:17:15;7.00;;;1.90;;
12129;SDS011;6128;59.340;18.040;2023-08-21T10:19:46;2.13;;;1.50;;
12129;SDS011;6128;59.340;18.040;2023-08-21T10:22:27;2.78;;;1.38;;
12129;SDS011;6128;59.340;18.040;2023-08-21T10:25:09;3.70;;;1.80;;
12129;SDS011;6128;59.340;18.040;2023-08-21T10:27:42;3.92;;;1.40;;
12129;SDS011;6128;59.340;18.040;2023-08-21T10:30:15;2.78;;;1.30;;
12129;SDS011;6128;59.340;18.040;2023-08-21T10:32:46;2.08;;;1.50;;
12129;SDS011;6128;59.340;18.040;2023-08-21T10:35:14;1.67;;;1.50;;
12129;SDS011;6128;59.340;18.040;2023-08-21T10:40:32;3.58;;;1.40;;
12129;SDS011;6128;59.340;18.040;2023-08-21T10:42:59;4.05;;;1.67;;
12129;SDS011;6128;59.340;18.040;2023-08-21T10:45:29;2.22;;;1.50;;
12129;SDS011;6128;59.340;18.040;2023-08-21T10:47:57;3.15;;;1.63;;
12129;SDS011;6128;59.340;18.040;2023-08-21T10:50:25;2.65;;;1.63;;
12129;SDS011;6128;59.340;18.040;2023-08-21T10:52:53;3.75;;;1.85;;
12129;SDS011;6128;59.340;18.040;2023-08-21T10:55:20;3.50;;;1.80;;
12129;SDS011;6128;59.340;18.040;2023-08-21T10:57:47;1.98;;;1.33;;
12129;SDS011;6128;59.340;18.040;2023-08-21T11:00:16;2.90;;;1.75;;
12129;SDS011;6128;59.340;18.040;2023-08-21T11:02:46;4.47;;;1.67;;
12129;SDS011;6128;59.340;18.040;2023-08-21T11:05:14;4.13;;;1.65;;
12129;SDS011;6128;59.340;18.040;2023-08-21T11:07:44;2.42;;;1.30;;
12129;SDS011;6128;59.340;18.040;2023-08-21T11:10:13;2.25;;;1.33;;
12129;SDS011;6128;59.340;18.040;2023-08-21T11:12:48;5.10;;;1.88;;
12129;SDS011;6128;59.340;18.040;2023-08-21T11:15:16;2.92;;;1.40;;
12129;SDS011;6128;59.340;18.040;2023-08-21T11:17:51;2.13;;;1.27;;
12129;SDS011;6128;59.340;18.040;2023-08-21T11:20:22;3.17;;;1.20;;
12129;SDS011;6128;59.340;18.040;2023-08-21T11:22:55;3.63;;;1.52;;
12129;SDS011;6128;59.340;18.040;2023-08-21T11:25:23;4.45;;;1.92;;
12129;SDS011;6128;59.340;18.040;2023-08-21T11:27:53;2.85;;;1.38;;
12129;SDS011;6128;59.340;18.040;2023-08-21T11:30:21;3.05;;;1.05;;
12129;SDS011;6128;59.340;18.040;2023-08-21T11:32:49;2.78;;;1.40;;
12129;SDS011;6128;59.340;18.040;2023-08-21T11:35:32;3.60;;;1.17;;
12129;SDS011;6128;59.340;18.040;2023-08-21T11:38:00;3.17;;;1.20;;
12129;SDS011;6128;59.340;18.040;2023-08-21T11:40:27;4.38;;;1.48;;
12129;SDS011;6128;59.340;18.040;2023-08-21T11:42:59;3.97;;;1.30;;
12129;SDS011;6128;59.340;18.040;2023-08-21T11:45:26;2.60;;;1.10;;
12129;SDS011;6128;59.340;18.040;2023-08-21T11:47:55;2.50;;;1.15;;
12129;SDS011;6128;59.340;18.040;2023-08-21T11:50:22;4.88;;;1.50;;
12129;SDS011;6128;59.340;18.040;2023-08-21T11:52:52;2.25;;;1.23;;
12129;SDS011;6128;59.340;18.040;2023-08-21T11:55:19;2.80;;;1.70;;
12129;SDS011;6128;59.340;18.040;2023-08-21T11:57:47;6.68;;;1.77;;
12129;SDS011;6128;59.340;18.040;2023-08-21T12:00:15;4.75;;;1.63;;
12129;SDS011;6128;59.340;18.040;2023-08-21T12:02:44;2.80;;;1.30;;
12129;SDS011;6128;59.340;18.040;2023-08-21T12:05:21;3.08;;;1.58;;
12129;SDS011;6128;59.340;18.040;2023-08-21T12:07:54;2.97;;;1.27;;
12129;SDS011;6128;59.340;18.040;2023-08-21T12:10:22;2.85;;;1.10;;
12129;SDS011;6128;59.340;18.040;2023-08-21T12:12:49;3.00;;;1.42;;
12129;SDS011;6128;59.340;18.040;2023-08-21T12:15:17;2.35;;;1.30;;
12129;SDS011;6128;59.340;18.040;2023-08-21T12:17:44;4.03;;;1.02;;
12129;SDS011;6128;59.340;18.040;2023-08-21T12:20:11;3.50;;;1.55;;
12129;SDS011;6128;59.340;18.040;2023-08-21T12:22:39;2.28;;;1.00;;
12129;SDS011;6128;59.340;18.040;2023-08-21T12:25:09;1.20;;;0.90;;
12129;SDS011;6128;59.340;18.040;2023-08-21T12:27:36;3.30;;;1.48;;
12129;SDS011;6128;59.340;18.040;2023-08-21T12:30:04;2.72;;;0.93;;
12129;SDS011;6128;59.340;18.040;2023-08-21T12:32:31;1.80;;;1.20;;
12129;SDS011;6128;59.340;18.040;2023-08-21T12:34:59;3.97;;;1.60;;
12129;SDS011;6128;59.340;18.040;2023-08-21T12:37:26;2.90;;;1.23;;
12129;SDS011;6128;59.340;18.040;2023-08-21T12:39:53;2.13;;;1.00;;
12129;SDS011;6128;59.340;18.040;2023-08-21T12:42:21;4.53;;;1.20;;
12129;SDS011;6128;59.340;18.040;2023-08-21T12:44:48;5.35;;;1.23;;
12129;SDS011;6128;59.340;18.040;2023-08-21T12:47:16;2.53;;;1.10;;
12129;SDS011;6128;59.340;18.040;2023-08-21T12:49:43;4.70;;;1.50;;
12129;SDS011;6128;59.340;18.040;2023-08-21T12:52:10;3.95;;;1.27;;
12129;SDS011;6128;59.340;18.040;2023-08-21T12:54:38;3.75;;;1.27;;
12129;SDS011;6128;59.340;18.040;2023-08-21T12:57:05;2.25;;;1.27;;
12129;SDS011;6128;59.340;18.040;2023-08-21T12:59:34;2.97;;;1.15;;
12129;SDS011;6128;59.340;18.040;2023-08-21T13:02:01;2.47;;;1.40;;
12129;SDS011;6128;59.340;18.040;2023-08-21T13:04:29;3.60;;;1.17;;
12129;SDS011;6128;59.340;18.040;2023-08-21T13:06:56;1.42;;;1.23;;
12129;SDS011;6128;59.340;18.040;2023-08-21T13:09:23;1.90;;;1.30;;
12129;SDS011;6128;59.340;18.040;2023-08-21T13:11:51;1.65;;;1.10;;
12129;SDS011;6128;59.340;18.040;2023-08-21T13:14:18;2.47;;;1.30;;
12129;SDS011;6128;59.340;18.040;2023-08-21T13:16:47;2.13;;;0.88;;
12129;SDS011;6128;59.340;18.040;2023-08-21T13:19:14;2.35;;;1.02;;
12129;SDS011;6128;59.340;18.040;2023-08-21T13:21:41;2.17;;;1.33;;
12129;SDS011;6128;59.340;18.040;2023-08-21T13:24:09;1.88;;;1.05;;
12129;SDS011;6128;59.340;18.040;2023-08-21T13:26:36;1.83;;;1.17;;
12129;SDS011;6128;59.340;18.040;2023-08-21T13:29:03;1.38;;;1.15;;
12129;SDS011;6128;59.340;18.040;2023-08-21T13:31:32;3.00;;;1.35;;
12129;SDS011;6128;59.340;18.040;2023-08-21T13:34:02;2.53;;;1.15;;
12129;SDS011;6128;59.340;18.040;2023-08-21T13:36:29;3.60;;;2.10;;
12129;SDS011;6128;59.340;18.040;2023-08-21T13:38:57;1.48;;;1.02;;
12129;SDS011;6128;59.340;18.040;2023-08-21T13:41:24;2.40;;;1.13;;
12129;SDS011;6128;59.340;18.040;2023-08-21T13:43:51;2.38;;;1.10;;
12129;SDS011;6128;59.340;18.040;2023-08-21T13:46:19;2.95;;;1.10;;
12129;SDS011;6128;59.340;18.040;2023-08-21T13:48:46;3.88;;;0.90;;
12129;SDS011;6128;59.340;18.040;2023-08-21T13:51:15;3.92;;;1.40;;
12129;SDS011;6128;59.340;18.040;2023-08-21T13:53:42;3.97;;;1.33;;
12129;SDS011;6128;59.340;18.040;2023-08-21T13:56:09;2.10;;;1.02;;
12129;SDS011;6128;59.340;18.040;2023-08-21T13:58:36;2.50;;;1.13;;
12129;SDS011;6128;59.340;18.040;2023-08-21T14:01:03;1.88;;;1.00;;
12129;SDS011;6128;59.340;18.040;2023-08-21T14:03:31;1.70;;;1.10;;
12129;SDS011;6128;59.340;18.040;2023-08-21T14:05:59;3.58;;;1.13;;
12129;SDS011;6128;59.340;18.040;2023-08-21T14:08:27;2.67;;;1.00;;
12129;SDS011;6128;59.340;18.040;2023-08-21T14:10:54;3.03;;;0.85;;
12129;SDS011;6128;59.340;18.040;2023-08-21T14:13:21;8.02;;;1.80;;
12129;SDS011;6128;59.340;18.040;2023-08-21T14:15:48;3.58;;;1.23;;
12129;SDS011;6128;59.340;18.040;2023-08-21T14:18:15;2.33;;;0.95;;
12129;SDS011;6128;59.340;18.040;2023-08-21T14:20:42;2.55;;;0.90;;
12129;SDS011;6128;59.340;18.040;2023-08-21T14:23:10;2.83;;;1.10;;
12129;SDS011;6128;59.340;18.040;2023-08-21T14:25:38;2.22;;;0.80;;
12129;SDS011;6128;59.340;18.040;2023-08-21T14:28:05;2.67;;;1.23;;
12129;SDS011;6128;59.340;18.040;2023-08-21T14:30:32;3.80;;;1.13;;
12129;SDS011;6128;59.340;18.040;2023-08-21T14:32:59;3.33;;;1.25;;
12129;SDS011;6128;59.340;18.040;2023-08-21T14:35:27;2.65;;;1.00;;
12129;SDS011;6128;59.340;18.040;2023-08-21T14:37:54;1.85;;;0.65;;
12129;SDS011;6128;59.340;18.040;2023-08-21T14:40:21;1.75;;;0.90;;
12129;SDS011;6128;59.340;18.040;2023-08-21T14:42:50;3.38;;;1.35;;
12129;SDS011;6128;59.340;18.040;2023-08-21T14:45:17;3.00;;;0.90;;
12129;SDS011;6128;59.340;18.040;2023-08-21T14:47:44;2.17;;;0.63;;
12129;SDS011;6128;59.340;18.040;2023-08-21T14:50:11;3.85;;;1.00;;
12129;SDS011;6128;59.340;18.040;2023-08-21T14:52:38;2.05;;;1.00;;
12129;SDS011;6128;59.340;18.040;2023-08-21T14:55:05;2.08;;;0.70;;